sensor_id;sensor_type;location;lat;lon;timestamp;temperature;humidity
4183;DHT22;2105;52.300;9.182;2023-05-19T00:00:31;7.30;24.60
4183;DHT22;2105;52.300;9.182;2023-05-19T00:02:59;7.20;24.10
4183;DHT22;2105;52.300;9.182;2023-05-19T00:05:26;7.20;99.90
4183;DHT22;2105;52.300;9.182;2023-05-19T00:07:58;7.20;1.00
4183;DHT22;2105;52.300;9.182;2023-05-19T00:10:25;7.20;1.00
4183;DHT22;2105;52.300;9.182;2023-05-19T00:12:56;7.20;1.00
4183;DHT22;2105;52.300;9.182;2023-05-19T00:15:23;7.30;99.90
4183;DHT22;2105;52.300;9.182;2023-05-19T00:17:51;7.30;1.00
4183;DHT22;2105;52.300;9.182;2023-05-19T00:20:19;7.30;1.00
4183;DHT22;2105;52.300;9.182;2023-05-19T00:22:46;7.30;1.00
4183;DHT22;2105;52.300;9.182;2023-05-19T00:25:13;7.30;1.00
4183;DHT22;2105;52.300;9.182;2023-05-19T00:27:40;7.20;1.00
4183;DHT22;2105;52.300;9.182;2023-05-19T00:30:07;7.30;1.00
4183;DHT22;2105;52.300;9.182;2023-05-19T00:32:34;7.20;1.00
4183;DHT22;2105;52.300;9.182;2023-05-19T00:35:02;7.20;4.80
4183;DHT22;2105;52.300;9.182;2023-05-19T00:37:29;7.20;1.00
4183;DHT22;2105;52.300;9.182;2023-05-19T00:39:56;7.10;1.00
4183;DHT22;2105;52.300;9.182;2023-05-19T00:42:24;7.10;1.00
4183;DHT22;2105;52.300;9.182;2023-05-19T00:44:51;7.10;99.90
4183;DHT22;2105;52.300;9.182;2023-05-19T00:47:18;7.10;99.90
4183;DHT22;2105;52.300;9.182;2023-05-19T00:49:45;7.20;99.90
4183;DHT22;2105;52.300;9.182;2023-05-19T00:52:13;7.10;99.90
4183;DHT22;2105;52.300;9.182;2023-05-19T00:54:40;7.10;99.90
4183;DHT22;2105;52.300;9.182;2023-05-19T00:57:06;7.00;99.90
4183;DHT22;2105;52.300;9.182;2023-05-19T00:59:33;7.00;1.00
4183;DHT22;2105;52.300;9.182;2023-05-19T01:02:00;6.80;1.00
4183;DHT22;2105;52.300;9.182;2023-05-19T01:04:27;6.80;36.80
4183;DHT22;2105;52.300;9.182;2023-05-19T01:06:59;6.80;99.90
4183;DHT22;2105;52.300;9.182;2023-05-19T01:09:27;6.70;99.90
4183;DHT22;2105;52.300;9.182;2023-05-19T01:11:55;6.60;1.00
4183;DHT22;2105;52.300;9.182;2023-05-19T01:14:21;6.50;1.00
4183;DHT22;2105;52.300;9.182;2023-05-19T01:16:55;6.40;99.90
4183;DHT22;2105;52.300;9.182;2023-05-19T01:19:35;6.40;40.30
4183;DHT22;2105;52.300;9.182;2023-05-19T01:22:17;6.40;88.30
4183;DHT22;2105;52.300;9.182;2023-05-19T01:25:12;6.40;76.00
4183;DHT22;2105;52.300;9.182;2023-05-19T01:28:08;6.40;1.00
4183;DHT22;2105;52.300;9.182;2023-05-19T01:30:40;6.40;99.50
4183;DHT22;2105;52.300;9.182;2023-05-19T01:33:09;6.50;99.90
4183;DHT22;2105;52.300;9.182;2023-05-19T01:35:39;6.50;99.90
4183;DHT22;2105;52.300;9.182;2023-05-19T01:38:08;6.40;99.90
4183;DHT22;2105;52.300;9.182;2023-05-19T01:40:36;6.40;1.00
4183;DHT22;2105;52.300;9.182;2023-05-19T01:43:04;6.50;1.00
4183;DHT22;2105;52.300;9.182;2023-05-19T01:45:32;6.50;99.90
4183;DHT22;2105;52.300;9.182;2023-05-19T01:48:02;6.50;99.90
4183;DHT22;2105;52.300;9.182;2023-05-19T01:50:30;6.40;99.90
4183;DHT22;2105;52.300;9.182;2023-05-19T01:52:57;6.30;99.90
4183;DHT22;2105;52.300;9.182;2023-05-19T01:55:24;6.30;99.90
4183;DHT22;2105;52.300;9.182;2023-05-19T01:58:01;6.20;99.90
4183;DHT22;2105;52.300;9.182;2023-05-19T02:00:50;6.20;1.00
4183;DHT22;2105;52.300;9.182;2023-05-19T02:03:36;6.10;99.90
4183;DHT22;2105;52.300;9.182;2023-05-19T02:06:17;6.00;1.00
4183;DHT22;2105;52.300;9.182;2023-05-19T02:08:56;6.00;1.00
4183;DHT22;2105;52.300;9.182;2023-05-19T02:11:28;5.90;1.00
4183;DHT22;2105;52.300;9.182;2023-05-19T02:13:56;5.90;99.90
4183;DHT22;2105;52.300;9.182;2023-05-19T02:16:27;5.90;1.00
4183;DHT22;2105;52.300;9.182;2023-05-19T02:18:55;6.00;1.00
4183;DHT22;2105;52.300;9.182;2023-05-19T02:21:23;6.10;1.00
4183;DHT22;2105;52.300;9.182;2023-05-19T02:23:50;6.10;1.00
4183;DHT22;2105;52.300;9.182;2023-05-19T02:26:17;6.10;99.90
4183;DHT22;2105;52.300;9.182;2023-05-19T02:28:43;6.20;1.00
4183;DHT22;2105;52.300;9.182;2023-05-19T02:31:10;6.20;99.90
4183;DHT22;2105;52.300;9.182;2023-05-19T02:33:37;6.20;1.00
4183;DHT22;2105;52.300;9.182;2023-05-19T02:36:05;6.20;1.00
4183;DHT22;2105;52.300;9.182;2023-05-19T02:38:33;6.10;1.00
4183;DHT22;2105;52.300;9.182;2023-05-19T02:41:00;6.00;99.90
4183;DHT22;2105;52.300;9.182;2023-05-19T02:43:27;5.90;99.90
4183;DHT22;2105;52.300;9.182;2023-05-19T02:45:54;5.80;1.00
4183;DHT22;2105;52.300;9.182;2023-05-19T02:48:21;5.70;1.00
4183;DHT22;2105;52.300;9.182;2023-05-19T02:50:48;5.60;99.90
4183;DHT22;2105;52.300;9.182;2023-05-19T02:53:16;5.60;99.90
4183;DHT22;2105;52.300;9.182;2023-05-19T02:55:43;5.70;99.90
4183;DHT22;2105;52.300;9.182;2023-05-19T02:58:09;5.70;1.00
4183;DHT22;2105;52.300;9.182;2023-05-19T03:00:36;5.80;99.90
4183;DHT22;2105;52.300;9.182;2023-05-19T03:03:03;5.80;99.90
4183;DHT22;2105;52.300;9.182;2023-05-19T03:05:30;5.90;1.00
4183;DHT22;2105;52.300;9.182;2023-05-19T03:07:56;5.90;1.00
4183;DHT22;2105;52.300;9.182;2023-05-19T03:10:24;6.00;99.90
4183;DHT22;2105;52.300;9.182;2023-05-19T03:12:51;5.90;5.60
4183;DHT22;2105;52.300;9.182;2023-05-19T03:15:18;5.90;1.00
4183;DHT22;2105;52.300;9.182;2023-05-19T03:17:46;5.80;99.90
4183;DHT22;2105;52.300;9.182;2023-05-19T03:20:13;5.80;99.90
4183;DHT22;2105;52.300;9.182;2023-05-19T03:22:40;5.80;1.00
4183;DHT22;2105;52.300;9.182;2023-05-19T03:25:08;5.80;1.00
4183;DHT22;2105;52.300;9.182;2023-05-19T03:27:36;5.80;99.90
4183;DHT22;2105;52.300;9.182;2023-05-19T03:30:03;5.80;1.00
4183;DHT22;2105;52.300;9.182;2023-05-19T03:32:30;5.80;99.90
4183;DHT22;2105;52.300;9.182;2023-05-19T03:34:58;5.90;1.00
4183;DHT22;2105;52.300;9.182;2023-05-19T03:37:25;5.90;99.90
4183;DHT22;2105;52.300;9.182;2023-05-19T03:39:51;5.90;99.90
4183;DHT22;2105;52.300;9.182;2023-05-19T03:42:18;6.00;99.90
4183;DHT22;2105;52.300;9.182;2023-05-19T03:44:46;6.00;99.90
4183;DHT22;2105;52.300;9.182;2023-05-19T03:47:19;6.10;1.00
4183;DHT22;2105;52.300;9.182;2023-05-19T03:49:48;6.20;1.00
4183;DHT22;2105;52.300;9.182;2023-05-19T03:52:15;6.20;1.00
4183;DHT22;2105;52.300;9.182;2023-05-19T03:54:41;6.20;1.00
4183;DHT22;2105;52.300;9.182;2023-05-19T03:57:09;6.20;1.00
4183;DHT22;2105;52.300;9.182;2023-05-19T03:59:36;6.20;1.00
4183;DHT22;2105;52.300;9.182;2023-05-19T04:02:04;6.10;1.00
4183;DHT22;2105;52.300;9.182;2023-05-19T04:04:31;6.10;1.00
4183;DHT22;2105;52.300;9.182;2023-05-19T04:06:57;6.00;1.00
4183;DHT22;2105;52.300;9.182;2023-05-19T04:09:24;6.00;1.00
4183;DHT22;2105;52.300;9.182;2023-05-19T04:11:51;6.00;70.80
4183;DHT22;2105;52.300;9.182;2023-05-19T04:14:17;5.90;99.90
4183;DHT22;2105;52.300;9.182;2023-05-19T04:16:45;6.00;1.00
4183;DHT22;2105;52.300;9.182;2023-05-19T04:19:13;5.90;99.90
4183;DHT22;2105;52.300;9.182;2023-05-19T04:21:40;5.90;1.00
4183;DHT22;2105;52.300;9.182;2023-05-19T04:24:06;6.00;99.90
4183;DHT22;2105;52.300;9.182;2023-05-19T04:26:33;6.10;1.00
4183;DHT22;2105;52.300;9.182;2023-05-19T04:29:00;6.30;99.90
4183;DHT22;2105;52.300;9.182;2023-05-19T04:31:28;6.40;99.90
4183;DHT22;2105;52.300;9.182;2023-05-19T04:33:55;6.60;99.90
4183;DHT22;2105;52.300;9.182;2023-05-19T04:36:23;6.70;99.90
4183;DHT22;2105;52.300;9.182;2023-05-19T04:38:50;6.90;99.90
4183;DHT22;2105;52.300;9.182;2023-05-19T04:41:19;7.00;1.00
4183;DHT22;2105;52.300;9.182;2023-05-19T04:43:46;7.20;99.90
4183;DHT22;2105;52.300;9.182;2023-05-19T04:46:14;7.30;1.00
4183;DHT22;2105;52.300;9.182;2023-05-19T04:48:41;7.40;1.00
4183;DHT22;2105;52.300;9.182;2023-05-19T04:51:08;7.60;1.00
4183;DHT22;2105;52.300;9.182;2023-05-19T04:53:40;7.70;1.00
4183;DHT22;2105;52.300;9.182;2023-05-19T04:56:07;7.90;1.00
4183;DHT22;2105;52.300;9.182;2023-05-19T04:58:34;8.10;99.90
4183;DHT22;2105;52.300;9.182;2023-05-19T05:01:02;8.30;99.90
4183;DHT22;2105;52.300;9.182;2023-05-19T05:03:29;8.40;1.00
4183;DHT22;2105;52.300;9.182;2023-05-19T05:05:57;8.70;1.00
4183;DHT22;2105;52.300;9.182;2023-05-19T05:08:24;8.80;99.90
4183;DHT22;2105;52.300;9.182;2023-05-19T05:10:53;8.80;65.90
4183;DHT22;2105;52.300;9.182;2023-05-19T05:13:21;8.90;1.00
4183;DHT22;2105;52.300;9.182;2023-05-19T05:15:49;9.00;1.00
4183;DHT22;2105;52.300;9.182;2023-05-19T05:18:17;9.00;99.90
4183;DHT22;2105;52.300;9.182;2023-05-19T05:20:44;9.00;61.90
4183;DHT22;2105;52.300;9.182;2023-05-19T05:23:13;9.10;99.90
4183;DHT22;2105;52.300;9.182;2023-05-19T05:25:40;9.10;1.00
4183;DHT22;2105;52.300;9.182;2023-05-19T05:28:08;9.10;99.90
4183;DHT22;2105;52.300;9.182;2023-05-19T05:30:36;9.20;1.00
4183;DHT22;2105;52.300;9.182;2023-05-19T05:33:02;9.30;1.00
4183;DHT22;2105;52.300;9.182;2023-05-19T05:35:29;9.40;99.90
4183;DHT22;2105;52.300;9.182;2023-05-19T05:37:56;9.40;99.90
4183;DHT22;2105;52.300;9.182;2023-05-19T05:40:23;9.50;99.90
4183;DHT22;2105;52.300;9.182;2023-05-19T05:42:49;9.70;99.90
4183;DHT22;2105;52.300;9.182;2023-05-19T05:45:17;9.80;1.00
4183;DHT22;2105;52.300;9.182;2023-05-19T05:47:45;9.90;1.00
4183;DHT22;2105;52.300;9.182;2023-05-19T05:50:12;10.10;1.00
4183;DHT22;2105;52.300;9.182;2023-05-19T05:52:40;10.20;99.90
4183;DHT22;2105;52.300;9.182;2023-05-19T05:55:08;10.20;99.90
4183;DHT22;2105;52.300;9.182;2023-05-19T05:57:35;10.30;99.90
4183;DHT22;2105;52.300;9.182;2023-05-19T06:00:02;10.40;99.90
4183;DHT22;2105;52.300;9.182;2023-05-19T06:02:33;10.40;99.90
4183;DHT22;2105;52.300;9.182;2023-05-19T06:05:01;10.50;99.90
4183;DHT22;2105;52.300;9.182;2023-05-19T06:07:27;10.50;99.90
4183;DHT22;2105;52.300;9.182;2023-05-19T06:09:54;10.70;99.90
4183;DHT22;2105;52.300;9.182;2023-05-19T06:12:21;10.80;99.90
4183;DHT22;2105;52.300;9.182;2023-05-19T06:14:48;10.90;1.00
4183;DHT22;2105;52.300;9.182;2023-05-19T06:17:16;11.10;99.90
4183;DHT22;2105;52.300;9.182;2023-05-19T06:19:44;11.40;99.90
4183;DHT22;2105;52.300;9.182;2023-05-19T06:22:11;11.50;1.00
4183;DHT22;2105;52.300;9.182;2023-05-19T06:24:37;11.70;98.50
4183;DHT22;2105;52.300;9.182;2023-05-19T06:27:04;11.90;1.00
4183;DHT22;2105;52.300;9.182;2023-05-19T06:29:31;12.10;99.90
4183;DHT22;2105;52.300;9.182;2023-05-19T06:31:58;12.20;99.90
4183;DHT22;2105;52.300;9.182;2023-05-19T06:34:24;12.40;99.90
4183;DHT22;2105;52.300;9.182;2023-05-19T06:36:53;12.60;99.90
4183;DHT22;2105;52.300;9.182;2023-05-19T06:39:20;12.80;1.00
4183;DHT22;2105;52.300;9.182;2023-05-19T06:41:47;13.10;1.00
4183;DHT22;2105;52.300;9.182;2023-05-19T06:44:14;13.30;99.90
4183;DHT22;2105;52.300;9.182;2023-05-19T06:46:40;13.50;99.90
4183;DHT22;2105;52.300;9.182;2023-05-19T06:49:09;13.80;99.90
4183;DHT22;2105;52.300;9.182;2023-05-19T06:51:35;14.20;1.00
4183;DHT22;2105;52.300;9.182;2023-05-19T06:54:04;14.50;1.00
4183;DHT22;2105;52.300;9.182;2023-05-19T06:56:30;14.90;1.00
4183;DHT22;2105;52.300;9.182;2023-05-19T06:58:57;15.40;99.90
4183;DHT22;2105;52.300;9.182;2023-05-19T07:01:24;15.80;99.90
4183;DHT22;2105;52.300;9.182;2023-05-19T07:03:52;16.30;99.90
4183;DHT22;2105;52.300;9.182;2023-05-19T07:06:18;16.80;1.00
4183;DHT22;2105;52.300;9.182;2023-05-19T07:08:45;17.00;1.00
4183;DHT22;2105;52.300;9.182;2023-05-19T07:11:13;17.40;1.00
4183;DHT22;2105;52.300;9.182;2023-05-19T07:13:40;17.60;1.00
4183;DHT22;2105;52.300;9.182;2023-05-19T07:16:06;17.90;1.00
4183;DHT22;2105;52.300;9.182;2023-05-19T07:18:33;18.40;1.00
4183;DHT22;2105;52.300;9.182;2023-05-19T07:21:00;19.00;1.00
4183;DHT22;2105;52.300;9.182;2023-05-19T07:23:26;19.30;1.00
4183;DHT22;2105;52.300;9.182;2023-05-19T07:25:53;19.80;1.00
4183;DHT22;2105;52.300;9.182;2023-05-19T07:28:22;20.50;1.00
4183;DHT22;2105;52.300;9.182;2023-05-19T07:30:49;20.70;1.00
4183;DHT22;2105;52.300;9.182;2023-05-19T07:33:16;20.90;1.00
4183;DHT22;2105;52.300;9.182;2023-05-19T07:35:43;21.10;1.00
4183;DHT22;2105;52.300;9.182;2023-05-19T07:38:10;21.10;99.90
4183;DHT22;2105;52.300;9.182;2023-05-19T07:40:37;21.30;99.90
4183;DHT22;2105;52.300;9.182;2023-05-19T07:43:04;21.20;99.90
4183;DHT22;2105;52.300;9.182;2023-05-19T07:45:32;21.00;99.90
4183;DHT22;2105;52.300;9.182;2023-05-19T07:47:59;21.00;99.90
4183;DHT22;2105;52.300;9.182;2023-05-19T07:50:25;20.60;99.90
4183;DHT22;2105;52.300;9.182;2023-05-19T07:52:52;20.30;1.00
4183;DHT22;2105;52.300;9.182;2023-05-19T07:55:19;19.90;1.00
4183;DHT22;2105;52.300;9.182;2023-05-19T07:57:47;18.90;1.00
4183;DHT22;2105;52.300;9.182;2023-05-19T08:00:14;18.50;1.00
4183;DHT22;2105;52.300;9.182;2023-05-19T08:02:43;18.10;1.00
4183;DHT22;2105;52.300;9.182;2023-05-19T08:05:10;17.60;1.00
4183;DHT22;2105;52.300;9.182;2023-05-19T08:07:37;17.30;1.00
4183;DHT22;2105;52.300;9.182;2023-05-19T08:10:04;17.40;1.00
4183;DHT22;2105;52.300;9.182;2023-05-19T08:12:31;17.30;1.00
4183;DHT22;2105;52.300;9.182;2023-05-19T08:14:57;17.10;1.00
4183;DHT22;2105;52.300;9.182;2023-05-19T08:17:24;17.00;1.00
4183;DHT22;2105;52.300;9.182;2023-05-19T08:19:52;17.00;1.00
4183;DHT22;2105;52.300;9.182;2023-05-19T08:22:19;17.00;1.00
4183;DHT22;2105;52.300;9.182;2023-05-19T08:24:45;16.80;1.00
4183;DHT22;2105;52.300;9.182;2023-05-19T08:27:14;16.90;1.00
4183;DHT22;2105;52.300;9.182;2023-05-19T08:29:40;17.00;1.00
4183;DHT22;2105;52.300;9.182;2023-05-19T08:32:07;16.90;1.00
4183;DHT22;2105;52.300;9.182;2023-05-19T08:34:34;16.90;1.00
4183;DHT22;2105;52.300;9.182;2023-05-19T08:37:02;16.90;1.00
4183;DHT22;2105;52.300;9.182;2023-05-19T08:39:28;17.10;1.00
4183;DHT22;2105;52.300;9.182;2023-05-19T08:41:58;17.20;1.00
4183;DHT22;2105;52.300;9.182;2023-05-19T08:44:25;17.30;1.00
4183;DHT22;2105;52.300;9.182;2023-05-19T08:46:53;17.40;1.00
4183;DHT22;2105;52.300;9.182;2023-05-19T08:49:22;17.40;1.00
4183;DHT22;2105;52.300;9.182;2023-05-19T08:51:57;17.50;1.00
4183;DHT22;2105;52.300;9.182;2023-05-19T08:54:36;17.50;1.00
4183;DHT22;2105;52.300;9.182;2023-05-19T08:57:08;17.50;1.00
4183;DHT22;2105;52.300;9.182;2023-05-19T08:59:35;17.70;1.00
4183;DHT22;2105;52.300;9.182;2023-05-19T09:02:03;17.90;1.00
4183;DHT22;2105;52.300;9.182;2023-05-19T09:04:30;17.80;1.00
4183;DHT22;2105;52.300;9.182;2023-05-19T09:06:57;17.80;1.00
4183;DHT22;2105;52.300;9.182;2023-05-19T09:09:28;17.80;1.00
4183;DHT22;2105;52.300;9.182;2023-05-19T09:11:55;17.90;1.00
4183;DHT22;2105;52.300;9.182;2023-05-19T09:14:22;18.00;1.00
4183;DHT22;2105;52.300;9.182;2023-05-19T09:16:48;18.20;1.00
4183;DHT22;2105;52.300;9.182;2023-05-19T09:19:17;18.10;1.00
4183;DHT22;2105;52.300;9.182;2023-05-19T09:21:45;18.00;1.00
4183;DHT22;2105;52.300;9.182;2023-05-19T09:24:12;18.20;1.00
4183;DHT22;2105;52.300;9.182;2023-05-19T09:26:41;18.30;1.00
4183;DHT22;2105;52.300;9.182;2023-05-19T09:29:11;18.30;1.00
4183;DHT22;2105;52.300;9.182;2023-05-19T09:31:38;18.30;1.00
4183;DHT22;2105;52.300;9.182;2023-05-19T09:34:11;18.50;1.00
4183;DHT22;2105;52.300;9.182;2023-05-19T09:36:38;18.60;1.00
4183;DHT22;2105;52.300;9.182;2023-05-19T09:39:12;18.70;1.00
4183;DHT22;2105;52.300;9.182;2023-05-19T09:41:41;18.90;1.00
4183;DHT22;2105;52.300;9.182;2023-05-19T09:44:11;19.00;1.00
4183;DHT22;2105;52.300;9.182;2023-05-19T09:46:46;19.20;1.00
4183;DHT22;2105;52.300;9.182;2023-05-19T09:49:22;19.30;1.00
4183;DHT22;2105;52.300;9.182;2023-05-19T09:55:27;19.40;1.00
4183;DHT22;2105;52.300;9.182;2023-05-19T09:58:40;19.40;1.00
4183;DHT22;2105;52.300;9.182;2023-05-19T10:04:17;19.40;99.90
4183;DHT22;2105;52.300;9.182;2023-05-19T10:06:43;19.20;1.00
4183;DHT22;2105;52.300;9.182;2023-05-19T10:09:11;19.20;1.00
4183;DHT22;2105;52.300;9.182;2023-05-19T10:11:38;19.20;99.90
4183;DHT22;2105;52.300;9.182;2023-05-19T10:14:07;19.40;99.90
4183;DHT22;2105;52.300;9.182;2023-05-19T10:16:34;19.40;1.00
4183;DHT22;2105;52.300;9.182;2023-05-19T10:19:01;19.50;1.00
4183;DHT22;2105;52.300;9.182;2023-05-19T10:21:28;19.20;99.90
4183;DHT22;2105;52.300;9.182;2023-05-19T10:23:55;19.00;1.00
4183;DHT22;2105;52.300;9.182;2023-05-19T10:26:22;19.10;99.90
4183;DHT22;2105;52.300;9.182;2023-05-19T10:28:50;18.70;1.00
4183;DHT22;2105;52.300;9.182;2023-05-19T10:31:20;19.10;1.00
4183;DHT22;2105;52.300;9.182;2023-05-19T10:34:07;19.40;99.90
4183;DHT22;2105;52.300;9.182;2023-05-19T10:36:43;19.70;99.90
4183;DHT22;2105;52.300;9.182;2023-05-19T10:39:16;20.00;99.90
4183;DHT22;2105;52.300;9.182;2023-05-19T10:41:49;20.00;99.90
4183;DHT22;2105;52.300;9.182;2023-05-19T10:44:26;20.00;99.90
4183;DHT22;2105;52.300;9.182;2023-05-19T10:46:56;20.00;99.90
4183;DHT22;2105;52.300;9.182;2023-05-19T10:49:23;20.20;99.90
4183;DHT22;2105;52.300;9.182;2023-05-19T10:51:51;20.40;99.90
4183;DHT22;2105;52.300;9.182;2023-05-19T10:54:38;20.60;99.90
4183;DHT22;2105;52.300;9.182;2023-05-19T10:57:05;20.70;99.90
4183;DHT22;2105;52.300;9.182;2023-05-19T10:59:34;20.00;99.90
4183;DHT22;2105;52.300;9.182;2023-05-19T11:02:07;19.60;99.90
4183;DHT22;2105;52.300;9.182;2023-05-19T11:04:38;19.90;99.90
4183;DHT22;2105;52.300;9.182;2023-05-19T11:07:08;20.30;99.90
4183;DHT22;2105;52.300;9.182;2023-05-19T11:09:39;20.20;99.90
4183;DHT22;2105;52.300;9.182;2023-05-19T11:12:06;20.10;99.90
4183;DHT22;2105;52.300;9.182;2023-05-19T11:14:35;20.10;99.90
4183;DHT22;2105;52.300;9.182;2023-05-19T11:17:01;19.80;99.90
4183;DHT22;2105;52.300;9.182;2023-05-19T11:19:33;19.30;99.90
4183;DHT22;2105;52.300;9.182;2023-05-19T11:22:08;19.50;99.90
4183;DHT22;2105;52.300;9.182;2023-05-19T11:24:36;19.40;99.90
4183;DHT22;2105;52.300;9.182;2023-05-19T11:27:18;18.90;99.90
4183;DHT22;2105;52.300;9.182;2023-05-19T11:29:44;19.10;99.90
4183;DHT22;2105;52.300;9.182;2023-05-19T11:32:13;19.40;99.90
4183;DHT22;2105;52.300;9.182;2023-05-19T11:34:42;19.20;99.90
4183;DHT22;2105;52.300;9.182;2023-05-19T11:37:10;18.80;99.90
4183;DHT22;2105;52.300;9.182;2023-05-19T11:39:38;18.70;99.90
4183;DHT22;2105;52.300;9.182;2023-05-19T11:42:05;18.60;99.90
4183;DHT22;2105;52.300;9.182;2023-05-19T11:44:31;19.00;99.90
4183;DHT22;2105;52.300;9.182;2023-05-19T11:46:58;19.40;99.90
4183;DHT22;2105;52.300;9.182;2023-05-19T11:49:27;19.70;99.90
4183;DHT22;2105;52.300;9.182;2023-05-19T11:51:56;20.10;99.90
4183;DHT22;2105;52.300;9.182;2023-05-19T11:54:28;20.40;99.90
4183;DHT22;2105;52.300;9.182;2023-05-19T11:56:55;20.80;99.90
4183;DHT22;2105;52.300;9.182;2023-05-19T11:59:28;21.10;99.90
4183;DHT22;2105;52.300;9.182;2023-05-19T12:01:56;21.30;99.90
4183;DHT22;2105;52.300;9.182;2023-05-19T12:04:23;21.10;99.90
4183;DHT22;2105;52.300;9.182;2023-05-19T12:06:50;20.90;99.90
4183;DHT22;2105;52.300;9.182;2023-05-19T12:09:18;20.80;99.90
4183;DHT22;2105;52.300;9.182;2023-05-19T12:11:47;20.40;99.90
4183;DHT22;2105;52.300;9.182;2023-05-19T12:14:15;20.40;99.90
4183;DHT22;2105;52.300;9.182;2023-05-19T12:16:42;20.20;99.90
4183;DHT22;2105;52.300;9.182;2023-05-19T12:19:09;19.90;99.90
4183;DHT22;2105;52.300;9.182;2023-05-19T12:21:35;19.70;99.90
4183;DHT22;2105;52.300;9.182;2023-05-19T12:24:02;19.60;99.90
4183;DHT22;2105;52.300;9.182;2023-05-19T12:26:32;19.30;99.90
4183;DHT22;2105;52.300;9.182;2023-05-19T12:28:58;19.40;99.90
4183;DHT22;2105;52.300;9.182;2023-05-19T12:31:25;19.70;99.90
4183;DHT22;2105;52.300;9.182;2023-05-19T12:33:52;20.10;99.90
4183;DHT22;2105;52.300;9.182;2023-05-19T12:36:19;20.70;99.90
4183;DHT22;2105;52.300;9.182;2023-05-19T12:38:47;20.60;99.90
4183;DHT22;2105;52.300;9.182;2023-05-19T12:41:18;20.40;99.90
4183;DHT22;2105;52.300;9.182;2023-05-19T12:43:46;20.50;99.90
4183;DHT22;2105;52.300;9.182;2023-05-19T12:46:13;20.30;99.90
4183;DHT22;2105;52.300;9.182;2023-05-19T12:48:41;20.10;99.90
4183;DHT22;2105;52.300;9.182;2023-05-19T12:51:08;19.70;99.90
4183;DHT22;2105;52.300;9.182;2023-05-19T12:53:36;19.40;99.90
4183;DHT22;2105;52.300;9.182;2023-05-19T12:56:10;19.30;99.90
4183;DHT22;2105;52.300;9.182;2023-05-19T12:58:37;19.70;99.90
4183;DHT22;2105;52.300;9.182;2023-05-19T13:01:05;19.70;99.90
4183;DHT22;2105;52.300;9.182;2023-05-19T13:03:38;19.40;99.90
4183;DHT22;2105;52.300;9.182;2023-05-19T13:06:06;19.00;99.90
4183;DHT22;2105;52.300;9.182;2023-05-19T13:08:34;19.20;99.90
4183;DHT22;2105;52.300;9.182;2023-05-19T13:11:01;19.80;99.90
4183;DHT22;2105;52.300;9.182;2023-05-19T13:13:27;20.40;99.90
4183;DHT22;2105;52.300;9.182;2023-05-19T13:15:54;20.70;99.90
4183;DHT22;2105;52.300;9.182;2023-05-19T13:18:22;21.00;99.90
4183;DHT22;2105;52.300;9.182;2023-05-19T13:20:48;21.40;99.90
4183;DHT22;2105;52.300;9.182;2023-05-19T13:23:17;21.60;99.90
4183;DHT22;2105;52.300;9.182;2023-05-19T13:25:44;21.70;99.90
4183;DHT22;2105;52.300;9.182;2023-05-19T13:28:11;22.10;99.90
4183;DHT22;2105;52.300;9.182;2023-05-19T13:30:38;22.10;99.90
4183;DHT22;2105;52.300;9.182;2023-05-19T13:33:05;22.00;99.90
4183;DHT22;2105;52.300;9.182;2023-05-19T13:35:34;21.80;99.90
4183;DHT22;2105;52.300;9.182;2023-05-19T13:38:04;21.20;99.90
4183;DHT22;2105;52.300;9.182;2023-05-19T13:40:32;20.60;99.90
4183;DHT22;2105;52.300;9.182;2023-05-19T13:42:59;20.20;99.90
4183;DHT22;2105;52.300;9.182;2023-05-19T13:45:26;19.90;99.90
4183;DHT22;2105;52.300;9.182;2023-05-19T13:47:53;20.00;99.90
4183;DHT22;2105;52.300;9.182;2023-05-19T13:50:20;20.20;99.90
4183;DHT22;2105;52.300;9.182;2023-05-19T13:52:48;20.50;99.90
4183;DHT22;2105;52.300;9.182;2023-05-19T13:55:15;21.00;99.90
4183;DHT22;2105;52.300;9.182;2023-05-19T13:57:41;21.20;99.90
4183;DHT22;2105;52.300;9.182;2023-05-19T14:00:09;21.20;99.90
4183;DHT22;2105;52.300;9.182;2023-05-19T14:02:36;21.00;99.90
4183;DHT22;2105;52.300;9.182;2023-05-19T14:05:04;21.00;99.90
4183;DHT22;2105;52.300;9.182;2023-05-19T14:07:31;21.20;99.90
4183;DHT22;2105;52.300;9.182;2023-05-19T14:10:01;21.60;99.90
4183;DHT22;2105;52.300;9.182;2023-05-19T14:12:28;21.50;99.90
4183;DHT22;2105;52.300;9.182;2023-05-19T14:14:55;21.50;99.90
4183;DHT22;2105;52.300;9.182;2023-05-19T14:17:22;21.20;99.90
4183;DHT22;2105;52.300;9.182;2023-05-19T14:19:48;20.80;99.90
4183;DHT22;2105;52.300;9.182;2023-05-19T14:22:15;20.70;99.90
4183;DHT22;2105;52.300;9.182;2023-05-19T14:24:42;20.40;99.90
4183;DHT22;2105;52.300;9.182;2023-05-19T14:27:10;20.30;99.90
4183;DHT22;2105;52.300;9.182;2023-05-19T14:29:37;20.30;99.90
4183;DHT22;2105;52.300;9.182;2023-05-19T14:32:04;20.40;99.90
4183;DHT22;2105;52.300;9.182;2023-05-19T14:34:31;20.80;99.90
4183;DHT22;2105;52.300;9.182;2023-05-19T14:36:59;21.20;99.90
4183;DHT22;2105;52.300;9.182;2023-05-19T14:39:26;21.30;99.90
4183;DHT22;2105;52.300;9.182;2023-05-19T14:41:54;20.70;99.90
4183;DHT22;2105;52.300;9.182;2023-05-19T14:44:22;20.10;99.90
4183;DHT22;2105;52.300;9.182;2023-05-19T14:46:49;19.70;99.90
4183;DHT22;2105;52.300;9.182;2023-05-19T14:49:15;19.50;99.90
4183;DHT22;2105;52.300;9.182;2023-05-19T14:51:42;19.50;99.90
4183;DHT22;2105;52.300;9.182;2023-05-19T14:54:08;19.60;99.90
4183;DHT22;2105;52.300;9.182;2023-05-19T14:56:35;20.30;99.90
4183;DHT22;2105;52.300;9.182;2023-05-19T14:59:02;20.80;99.90
4183;DHT22;2105;52.300;9.182;2023-05-19T15:01:30;21.40;99.90
4183;DHT22;2105;52.300;9.182;2023-05-19T15:03:57;21.20;99.90
4183;DHT22;2105;52.300;9.182;2023-05-19T15:06:25;20.80;99.90
4183;DHT22;2105;52.300;9.182;2023-05-19T15:08:51;20.10;99.90
4183;DHT22;2105;52.300;9.182;2023-05-19T15:11:18;19.70;99.90
4183;DHT22;2105;52.300;9.182;2023-05-19T15:13:45;19.40;99.90
4183;DHT22;2105;52.300;9.182;2023-05-19T15:16:12;19.30;99.90
4183;DHT22;2105;52.300;9.182;2023-05-19T15:18:40;19.40;99.90
4183;DHT22;2105;52.300;9.182;2023-05-19T15:21:06;19.70;99.90
4183;DHT22;2105;52.300;9.182;2023-05-19T15:23:33;19.90;99.90
4183;DHT22;2105;52.300;9.182;2023-05-19T15:25:59;20.10;99.90
4183;DHT22;2105;52.300;9.182;2023-05-19T15:28:26;20.00;99.90
4183;DHT22;2105;52.300;9.182;2023-05-19T15:30:53;19.90;99.90
4183;DHT22;2105;52.300;9.182;2023-05-19T15:33:19;20.20;99.90
4183;DHT22;2105;52.300;9.182;2023-05-19T15:35:47;20.50;99.90
4183;DHT22;2105;52.300;9.182;2023-05-19T15:38:17;20.20;99.90
4183;DHT22;2105;52.300;9.182;2023-05-19T15:40:43;20.20;99.90
4183;DHT22;2105;52.300;9.182;2023-05-19T15:43:10;19.90;99.90
4183;DHT22;2105;52.300;9.182;2023-05-19T15:45:37;19.60;99.90
4183;DHT22;2105;52.300;9.182;2023-05-19T15:48:04;19.30;99.90
4183;DHT22;2105;52.300;9.182;2023-05-19T15:50:30;19.10;99.90
4183;DHT22;2105;52.300;9.182;2023-05-19T15:52:58;19.00;99.90
4183;DHT22;2105;52.300;9.182;2023-05-19T15:55:25;19.30;99.90
4183;DHT22;2105;52.300;9.182;2023-05-19T15:57:52;19.30;99.90
4183;DHT22;2105;52.300;9.182;2023-05-19T16:00:18;19.20;99.90
4183;DHT22;2105;52.300;9.182;2023-05-19T16:02:45;19.00;99.90
4183;DHT22;2105;52.300;9.182;2023-05-19T16:05:12;18.90;99.90
4183;DHT22;2105;52.300;9.182;2023-05-19T16:07:38;18.80;99.90
4183;DHT22;2105;52.300;9.182;2023-05-19T16:10:08;18.80;99.90
4183;DHT22;2105;52.300;9.182;2023-05-19T16:12:35;18.90;99.90
4183;DHT22;2105;52.300;9.182;2023-05-19T16:15:02;19.10;99.90
4183;DHT22;2105;52.300;9.182;2023-05-19T16:17:28;19.50;99.90
4183;DHT22;2105;52.300;9.182;2023-05-19T16:19:55;19.60;99.90
4183;DHT22;2105;52.300;9.182;2023-05-19T16:22:21;19.40;99.90
4183;DHT22;2105;52.300;9.182;2023-05-19T16:24:49;19.30;99.90
4183;DHT22;2105;52.300;9.182;2023-05-19T16:27:17;19.00;99.90